Time;durP1;ratioP1;P1;durP2;ratioP2;P2;SDS_P1;SDS_P2;PMS_P1;PMS_P2;Temp;Humidity;BMP_temperature;BMP_pressure;BME280_temperature;BME280_humidity;BME280_pressure;Samples;Min_cycle;Max_cycle;Signal;HPM_P1;HPM_P2
2022/04/06 00:02:04;;;;;;;;;;;5.20;90.20;;;;;;5020681;28;19917;-80
2022/04/06 00:04:29;;;;;;;;;;;5.10;90.20;;;;;;5020904;28;19921;-80
2022/04/06 00:06:55;;;;;;;;;;;5.10;90.30;;;;;;5021106;28;20660;-81
2022/04/06 00:09:21;;;;;;;;;;;5.20;90.40;;;;;;5021292;28;20344;-80
2022/04/06 00:11:46;;;;;;;;;;;5.00;90.50;;;;;;5021018;28;20358;-81
2022/04/06 00:14:12;;;;;;;;;;;5.00;90.40;;;;;;5021486;28;19941;-81
2022/04/06 00:16:39;;;;;;;;;;;5.00;90.30;;;;;;5021366;28;20382;-81
2022/04/06 00:19:04;;;;;;;;;;;5.00;90.30;;;;;;5020786;28;19967;-79
2022/04/06 00:21:30;;;;;;;;;;;5.00;90.40;;;;;;5021583;28;19913;-79
2022/04/06 00:23:56;;;;;;;;;;;5.00;90.50;;;;;;5021417;28;19913;-79
2022/04/06 00:26:23;;;;;;;;;;;4.90;90.70;;;;;;5021026;28;19940;-79
2022/04/06 00:28:49;;;;;;;;;;;4.90;90.80;;;;;;5003367;28;20314;-79
2022/04/06 00:31:14;;;;;;;;;;;4.90;91.00;;;;;;5021384;28;20008;-78
2022/04/06 00:33:40;;;;;;;;;;;6.30;91.30;;;;;;5001881;28;19917;-79
2022/04/06 00:36:06;;;;;;;;;;;4.70;91.10;;;;;;5022337;28;19928;-79
2022/04/06 00:38:31;;;;;;;;;;;4.70;91.10;;;;;;5021696;28;19913;-79
2022/04/06 00:40:57;;;;;;;;;;;4.70;91.10;;;;;;5016862;28;20012;-79
2022/04/06 00:43:22;;;;;;;;;;;4.80;91.10;;;;;;5017347;28;20075;-81
2022/04/06 00:45:48;;;;;;;;;;;4.70;91.20;;;;;;5022554;28;19999;-80
2022/04/06 00:48:14;;;;;;;;;;;4.80;91.10;;;;;;5023245;28;20315;-79
2022/04/06 00:50:41;;;;;;;;;;;4.70;91.20;;;;;;5024502;28;20059;-80
2022/04/06 00:53:07;;;;;;;;;;;4.70;91.10;;;;;;5014823;28;19910;-81
2022/04/06 00:55:34;;;;;;;;;;;5.50;91.30;;;;;;5027734;28;19947;-81
2022/04/06 00:58:00;;;;;;;;;;;4.60;91.00;;;;;;5009552;28;19909;-81
2022/04/06 01:00:26;;;;;;;;;;;4.60;91.10;;;;;;5025386;28;19909;-81
2022/04/06 01:02:53;;;;;;;;;;;4.60;91.40;;;;;;5023939;28;20186;-81
2022/04/06 01:05:20;;;;;;;;;;;4.60;91.40;;;;;;5023594;28;20185;-81
2022/04/06 01:07:49;;;;;;;;;;;4.60;91.30;;;;;;5024238;28;19915;-80
2022/04/06 01:10:14;;;;;;;;;;;4.60;91.40;;;;;;5024282;28;19913;-80
2022/04/06 01:12:40;;;;;;;;;;;4.60;91.70;;;;;;5022696;28;20281;-79
2022/04/06 01:15:07;;;;;;;;;;;4.50;91.40;;;;;;5023974;28;20198;-78
2022/04/06 01:17:33;;;;;;;;;;;4.50;91.50;;;;;;5024188;28;20209;-79
2022/04/06 01:20:00;;;;;;;;;;;4.50;91.60;;;;;;5024912;28;19909;-79
2022/04/06 01:22:26;;;;;;;;;;;4.40;91.70;;;;;;5028707;28;19909;-79
2022/04/06 01:24:52;;;;;;;;;;;4.40;91.50;;;;;;5024244;28;19979;-79
2022/04/06 01:27:17;;;;;;;;;;;4.40;91.60;;;;;;5030540;28;20165;-79
2022/04/06 01:29:43;;;;;;;;;;;4.50;91.70;;;;;;5030416;28;20146;-80
2022/04/06 01:32:13;;;;;;;;;;;4.40;91.80;;;;;;5026492;28;19921;-79
2022/04/06 01:34:39;;;;;;;;;;;4.40;91.80;;;;;;5020370;28;19971;-79
2022/04/06 01:37:05;;;;;;;;;;;4.40;91.80;;;;;;5020083;28;19935;-80
2022/04/06 01:39:35;;;;;;;;;;;4.40;91.80;;;;;;5002328;28;19913;-80
2022/04/06 01:42:01;;;;;;;;;;;4.40;91.80;;;;;;5020283;28;19936;-79
2022/04/06 01:44:27;;;;;;;;;;;4.40;91.70;;;;;;5020069;28;19913;-79
2022/04/06 01:46:53;;;;;;;;;;;4.40;91.80;;;;;;5020018;28;20077;-79
2022/04/06 01:52:12;;;;;;;;;;;4.40;91.60;;;;;;5020361;28;19967;-80
2022/04/06 01:55:00;;;;;;;;;;;4.50;91.70;;;;;;5025004;28;20214;-79
2022/04/06 01:57:27;;;;;;;;;;;4.40;91.70;;;;;;5020919;28;19909;-79
2022/04/06 01:59:52;;;;;;;;;;;4.30;91.80;;;;;;4994170;28;19921;-80
2022/04/06 02:02:19;;;;;;;;;;;4.30;91.70;;;;;;5017523;28;20332;-79
2022/04/06 02:04:44;;;;;;;;;;;4.30;91.80;;;;;;5019268;28;20220;-79
2022/04/06 02:07:11;;;;;;;;;;;4.30;91.80;;;;;;5023129;28;20406;-80
2022/04/06 02:09:38;;;;;;;;;;;4.40;91.90;;;;;;5022649;28;19991;-79
2022/04/06 02:12:05;;;;;;;;;;;4.70;91.90;;;;;;5022770;28;19921;-79
2022/04/06 02:14:31;;;;;;;;;;;4.30;91.80;;;;;;5004921;28;19918;-79
2022/04/06 02:16:56;;;;;;;;;;;4.20;92.00;;;;;;5022100;28;19974;-79
2022/04/06 02:19:22;;;;;;;;;;;4.30;92.10;;;;;;5022660;28;20119;-79
2022/04/06 02:21:47;;;;;;;;;;;4.20;92.20;;;;;;5024663;28;19924;-79
2022/04/06 02:24:13;;;;;;;;;;;4.20;92.50;;;;;;5022697;28;19927;-79
2022/04/06 02:26:39;;;;;;;;;;;3.70;92.10;;;;;;5021745;28;19910;-79
2022/04/06 02:29:05;;;;;;;;;;;4.10;92.30;;;;;;5022611;28;19921;-78
2022/04/06 02:31:31;;;;;;;;;;;4.10;92.50;;;;;;5024165;28;19984;-79
2022/04/06 02:33:56;;;;;;;;;;;4.10;92.30;;;;;;5022042;28;20018;-79
2022/04/06 02:36:22;;;;;;;;;;;4.20;92.30;;;;;;5022470;28;20525;-79
2022/04/06 02:38:47;;;;;;;;;;;4.20;92.10;;;;;;5022673;28;19990;-80
2022/04/06 02:41:13;;;;;;;;;;;4.20;92.10;;;;;;5021741;28;19983;-79
2022/04/06 02:43:39;;;;;;;;;;;4.20;92.20;;;;;;5022067;28;19916;-79
2022/04/06 02:46:05;;;;;;;;;;;4.10;92.10;;;;;;5021993;28;19913;-79
2022/04/06 02:48:30;;;;;;;;;;;4.20;92.40;;;;;;5018013;28;20419;-78
2022/04/06 02:50:56;;;;;;;;;;;4.10;92.30;;;;;;5021226;28;20096;-79
2022/04/06 02:53:22;;;;;;;;;;;4.10;92.40;;;;;;5021099;28;19999;-79
2022/04/06 02:55:48;;;;;;;;;;;5.00;92.90;;;;;;5021428;28;19921;-78
2022/04/06 02:58:13;;;;;;;;;;;3.90;92.60;;;;;;5021455;28;19956;-79
2022/04/06 03:00:39;;;;;;;;;;;3.90;92.70;;;;;;5024087;28;20003;-79
2022/04/06 03:03:05;;;;;;;;;;;3.90;92.70;;;;;;5025866;28;19909;-80
2022/04/06 03:05:30;;;;;;;;;;;3.90;93.20;;;;;;5003224;28;19922;-80
2022/04/06 03:07:56;;;;;;;;;;;3.90;92.80;;;;;;5004746;28;20111;-80
2022/04/06 03:10:22;;;;;;;;;;;3.90;92.80;;;;;;5011150;28;19920;-80
2022/04/06 03:12:47;;;;;;;;;;;3.90;92.80;;;;;;5010295;28;19918;-80
2022/04/06 03:15:14;;;;;;;;;;;3.90;92.80;;;;;;5002824;28;19922;-80
2022/04/06 03:17:41;;;;;;;;;;;3.90;93.00;;;;;;5001507;28;19949;-80
2022/04/06 03:20:07;;;;;;;;;;;3.90;92.80;;;;;;5003031;28;20091;-79
2022/04/06 03:22:33;;;;;;;;;;;3.90;92.70;;;;;;5003016;28;19913;-79
2022/04/06 03:24:58;;;;;;;;;;;3.90;92.80;;;;;;5002838;28;20332;-80
2022/04/06 03:27:24;;;;;;;;;;;3.90;93.00;;;;;;4984492;28;20222;-79
2022/04/06 03:29:49;;;;;;;;;;;4.40;93.00;;;;;;5001598;28;20009;-79
2022/04/06 03:32:15;;;;;;;;;;;3.90;93.00;;;;;;5002267;28;20183;-80
2022/04/06 03:34:41;;;;;;;;;;;3.90;93.00;;;;;;5002641;28;19987;-79
2022/04/06 03:37:06;;;;;;;;;;;5.90;93.40;;;;;;5002332;28;20492;-80
2022/04/06 03:39:32;;;;;;;;;;;3.80;92.90;;;;;;5002319;28;20099;-80
2022/04/06 03:41:58;;;;;;;;;;;3.90;92.80;;;;;;5001993;28;19921;-80
2022/04/06 03:44:23;;;;;;;;;;;3.80;92.90;;;;;;5002142;28;19987;-80
2022/04/06 03:46:49;;;;;;;;;;;4.00;92.80;;;;;;5002541;28;19913;-79
2022/04/06 03:49:14;;;;;;;;;;;3.80;92.80;;;;;;5003049;28;19914;-80
2022/04/06 03:51:40;;;;;;;;;;;3.70;93.00;;;;;;5003553;28;20422;-79
2022/04/06 03:54:05;;;;;;;;;;;3.70;93.30;;;;;;5003530;28;20558;-80
2022/04/06 03:56:31;;;;;;;;;;;3.70;93.30;;;;;;4986238;28;19910;-80
2022/04/06 03:58:57;;;;;;;;;;;3.60;93.40;;;;;;4994298;28;19964;-80
2022/04/06 04:01:22;;;;;;;;;;;3.60;93.40;;;;;;5004220;28;20169;-80
2022/04/06 04:03:48;;;;;;;;;;;3.60;93.40;;;;;;5013990;28;19910;-80
2022/04/06 04:06:13;;;;;;;;;;;3.60;93.50;;;;;;5045186;28;19989;-80
2022/04/06 04:08:40;;;;;;;;;;;3.60;93.50;;;;;;5043947;28;19897;-80
2022/04/06 04:11:05;;;;;;;;;;;3.60;93.60;;;;;;5035722;28;19909;-80
2022/04/06 04:13:31;;;;;;;;;;;3.50;93.90;;;;;;5027310;28;19917;-80
2022/04/06 04:15:56;;;;;;;;;;;3.50;93.60;;;;;;5009415;28;19921;-80
2022/04/06 04:18:22;;;;;;;;;;;3.50;93.60;;;;;;5024210;28;20308;-80
2022/04/06 04:20:48;;;;;;;;;;;3.50;93.70;;;;;;5024276;28;19909;-80
2022/04/06 04:23:13;;;;;;;;;;;3.40;93.70;;;;;;5024656;28;19913;-80
2022/04/06 04:25:39;;;;;;;;;;;3.40;93.90;;;;;;5025027;28;19913;-80
2022/04/06 04:28:05;;;;;;;;;;;3.50;93.90;;;;;;5022546;28;20350;-79
2022/04/06 04:30:31;;;;;;;;;;;3.60;93.60;;;;;;5022546;28;19913;-80
2022/04/06 04:32:56;;;;;;;;;;;3.60;93.40;;;;;;5023846;28;19915;-80
2022/04/06 04:35:22;;;;;;;;;;;3.60;93.60;;;;;;5023822;28;20109;-80
2022/04/06 04:37:48;;;;;;;;;;;3.60;93.40;;;;;;5026326;28;19920;-81
2022/04/06 04:40:16;;;;;;;;;;;3.50;93.60;;;;;;5026022;28;20285;-81
2022/04/06 04:42:41;;;;;;;;;;;3.40;93.70;;;;;;4993537;28;19914;-81
2022/04/06 04:45:08;;;;;;;;;;;3.50;93.70;;;;;;5027083;28;19924;-80
2022/04/06 04:47:34;;;;;;;;;;;3.50;93.70;;;;;;5030181;28;20036;-80
2022/04/06 04:50:00;;;;;;;;;;;3.50;93.70;;;;;;5029880;28;19920;-81
2022/04/06 04:52:26;;;;;;;;;;;3.60;93.60;;;;;;5009527;28;19916;-81
2022/04/06 04:54:51;;;;;;;;;;;3.50;93.50;;;;;;5029933;28;19988;-81
2022/04/06 04:57:17;;;;;;;;;;;3.60;93.50;;;;;;5024195;28;19909;-81
2022/04/06 04:59:42;;;;;;;;;;;3.80;93.80;;;;;;5022708;28;19910;-80
2022/04/06 05:02:08;;;;;;;;;;;3.50;93.60;;;;;;5022554;28;19964;-79
2022/04/06 05:04:33;;;;;;;;;;;3.60;93.40;;;;;;5024126;28;19925;-80
2022/04/06 05:06:59;;;;;;;;;;;3.60;93.20;;;;;;5022682;28;19937;-81
2022/04/06 05:09:24;;;;;;;;;;;4.40;93.40;;;;;;5023423;28;19909;-81
2022/04/06 05:11:50;;;;;;;;;;;3.80;93.30;;;;;;5024242;28;20025;-80
2022/04/06 05:14:17;;;;;;;;;;;3.70;93.50;;;;;;5024020;28;20202;-81
2022/04/06 05:16:45;;;;;;;;;;;3.70;93.00;;;;;;5005065;28;20278;-80
2022/04/06 05:19:11;;;;;;;;;;;3.60;93.10;;;;;;5021297;28;19941;-80
2022/04/06 05:21:36;;;;;;;;;;;5.20;93.40;;;;;;5020970;28;20052;-80
2022/04/06 05:24:04;;;;;;;;;;;3.80;93.00;;;;;;5022106;28;19909;-80
2022/04/06 05:26:30;;;;;;;;;;;3.90;93.00;;;;;;5017774;28;19941;-80
2022/04/06 05:28:56;;;;;;;;;;;3.30;92.70;;;;;;5021762;28;19999;-80
2022/04/06 05:31:22;;;;;;;;;;;4.10;92.80;;;;;;5021135;28;19913;-81
2022/04/06 05:33:48;;;;;;;;;;;4.20;92.80;;;;;;5022543;28;20103;-81
2022/04/06 05:36:15;;;;;;;;;;;4.30;92.50;;;;;;5022115;28;19921;-80
2022/04/06 05:38:40;;;;;;;;;;;4.30;92.20;;;;;;5023113;28;20430;-80
2022/04/06 05:41:07;;;;;;;;;;;4.40;92.10;;;;;;5024549;28;19913;-81
2022/04/06 05:43:32;;;;;;;;;;;4.50;91.70;;;;;;5003616;28;19910;-79
2022/04/06 05:45:58;;;;;;;;;;;4.60;91.70;;;;;;5025394;28;19917;-80
2022/04/06 05:48:24;;;;;;;;;;;4.70;91.40;;;;;;5025721;28;19999;-80
2022/04/06 05:50:50;;;;;;;;;;;4.80;91.20;;;;;;5024691;28;19932;-80
2022/04/06 05:53:15;;;;;;;;;;;5.00;90.90;;;;;;5026005;28;20149;-80
2022/04/06 05:55:42;;;;;;;;;;;5.10;90.70;;;;;;5022791;28;20131;-81
2022/04/06 05:58:08;;;;;;;;;;;5.20;90.70;;;;;;5026250;28;20380;-80
2022/04/06 06:00:33;;;;;;;;;;;5.30;90.70;;;;;;5025977;28;20087;-80
2022/04/06 06:02:59;;;;;;;;;;;5.40;90.60;;;;;;5021074;28;19909;-80
2022/04/06 06:05:24;;;;;;;;;;;5.50;90.40;;;;;;5022302;28;19979;-80
2022/04/06 06:07:50;;;;;;;;;;;5.60;90.30;;;;;;5009609;28;20403;-80
2022/04/06 06:10:15;;;;;;;;;;;5.60;90.00;;;;;;5028262;28;19931;-80
2022/04/06 06:12:41;;;;;;;;;;;5.70;89.90;;;;;;5027550;28;20207;-80
2022/04/06 06:15:07;;;;;;;;;;;5.90;89.60;;;;;;5028607;28;20004;-80
2022/04/06 06:17:38;;;;;;;;;;;6.00;89.00;;;;;;5029849;28;20103;-80
2022/04/06 06:20:04;;;;;;;;;;;6.10;88.30;;;;;;5036635;28;20032;-80
2022/04/06 06:22:30;;;;;;;;;;;6.30;87.60;;;;;;5047262;28;19999;-79
2022/04/06 06:24:55;;;;;;;;;;;6.40;87.50;;;;;;5046771;28;19959;-79
2022/04/06 06:27:22;;;;;;;;;;;6.50;86.60;;;;;;5041069;28;19909;-81
2022/04/06 06:29:48;;;;;;;;;;;6.60;86.60;;;;;;5037771;28;20422;-81
2022/04/06 06:32:13;;;;;;;;;;;6.80;86.00;;;;;;5038180;28;19948;-80
2022/04/06 06:34:39;;;;;;;;;;;6.90;85.30;;;;;;5034408;28;19913;-81
2022/04/06 06:37:07;;;;;;;;;;;7.20;84.90;;;;;;5034453;28;19916;-81
2022/04/06 06:39:33;;;;;;;;;;;7.30;83.90;;;;;;5025980;28;19913;-81
2022/04/06 06:41:58;;;;;;;;;;;7.40;83.50;;;;;;5005583;28;19920;-81
2022/04/06 06:44:24;;;;;;;;;;;7.60;82.80;;;;;;5005696;28;20012;-81
2022/04/06 06:46:49;;;;;;;;;;;7.80;82.30;;;;;;5026716;28;19962;-81
2022/04/06 06:49:16;;;;;;;;;;;7.90;81.80;;;;;;5026107;28;19936;-80
2022/04/06 06:51:41;;;;;;;;;;;8.00;81.10;;;;;;5025366;28;19920;-81
2022/04/06 06:54:07;;;;;;;;;;;8.10;81.80;;;;;;5026942;28;19909;-81
2022/04/06 06:56:33;;;;;;;;;;;8.20;81.00;;;;;;5026421;28;19917;-81
2022/04/06 06:59:00;;;;;;;;;;;8.40;80.50;;;;;;5004712;28;19909;-81
2022/04/06 07:01:25;;;;;;;;;;;8.50;80.20;;;;;;5021968;28;20016;-81
2022/04/06 07:03:52;;;;;;;;;;;8.60;79.90;;;;;;5019028;28;19909;-81
2022/04/06 07:06:17;;;;;;;;;;;8.80;79.50;;;;;;5027118;28;20570;-81
2022/04/06 07:08:43;;;;;;;;;;;8.80;78.80;;;;;;5028449;28;19913;-81
2022/04/06 07:11:10;;;;;;;;;;;9.00;77.70;;;;;;5026789;28;19916;-80
2022/04/06 07:13:35;;;;;;;;;;;9.10;77.00;;;;;;5025975;28;20206;-81
2022/04/06 07:16:02;;;;;;;;;;;9.30;76.50;;;;;;5027956;28;19928;-80
2022/04/06 07:18:28;;;;;;;;;;;9.40;76.00;;;;;;5027979;28;19909;-80
2022/04/06 07:20:54;;;;;;;;;;;9.50;75.00;;;;;;5026811;28;19967;-80
2022/04/06 07:23:20;;;;;;;;;;;9.60;74.50;;;;;;5026115;28;20142;-80
2022/04/06 07:25:45;;;;;;;;;;;9.70;74.20;;;;;;5027171;28;20333;-80
2022/04/06 07:28:11;;;;;;;;;;;9.80;73.50;;;;;;5027778;28;20012;-80
2022/04/06 07:30:36;;;;;;;;;;;10.00;72.70;;;;;;5027725;28;20091;-80
2022/04/06 07:33:02;;;;;;;;;;;10.20;72.30;;;;;;5026926;28;20013;-82
2022/04/06 07:35:28;;;;;;;;;;;10.30;71.60;;;;;;5026402;28;20032;-81
2022/04/06 07:37:53;;;;;;;;;;;10.50;70.40;;;;;;5026557;28;20000;-81
2022/04/06 07:40:19;;;;;;;;;;;10.60;69.10;;;;;;5025793;28;20360;-80
2022/04/06 07:42:52;;;;;;;;;;;10.70;68.60;;;;;;5022268;28;20130;-80
2022/04/06 07:45:19;;;;;;;;;;;10.90;67.50;;;;;;5022126;28;20371;-80
2022/04/06 07:47:46;;;;;;;;;;;10.90;66.50;;;;;;5022406;28;19920;-79
2022/04/06 07:50:15;;;;;;;;;;;11.20;65.80;;;;;;5003079;28;19909;-80
2022/04/06 07:52:41;;;;;;;;;;;11.30;65.00;;;;;;5022899;28;19998;-82
2022/04/06 07:55:08;;;;;;;;;;;11.40;64.10;;;;;;5005347;28;19913;-81
2022/04/06 07:57:34;;;;;;;;;;;11.50;64.40;;;;;;5021227;28;19917;-86
2022/04/06 08:00:01;;;;;;;;;;;11.70;62.80;;;;;;5005988;28;19909;-86
2022/04/06 08:02:27;;;;;;;;;;;12.00;61.70;;;;;;5022969;28;20423;-86
2022/04/06 08:04:53;;;;;;;;;;;12.10;60.70;;;;;;5021433;28;19975;-85
2022/04/06 08:07:19;;;;;;;;;;;12.20;63.20;;;;;;5000077;28;20391;-80
2022/04/06 08:09:44;;;;;;;;;;;12.40;62.70;;;;;;5018886;28;19909;-83
2022/04/06 08:12:10;;;;;;;;;;;12.60;60.20;;;;;;5020376;28;20480;-84
2022/04/06 08:14:36;;;;;;;;;;;12.80;58.80;;;;;;5020281;28;20015;-82
2022/04/06 08:17:02;;;;;;;;;;;13.00;58.40;;;;;;4999783;28;20004;-80
2022/04/06 08:19:28;;;;;;;;;;;13.10;57.50;;;;;;5016440;28;19967;-76
2022/04/06 08:21:53;;;;;;;;;;;13.20;57.60;;;;;;5019844;28;19909;-82
2022/04/06 08:24:19;;;;;;;;;;;13.50;56.80;;;;;;4998472;28;19916;-82
2022/04/06 08:26:46;;;;;;;;;;;13.60;56.10;;;;;;5018689;28;19963;-83
2022/04/06 08:29:11;;;;;;;;;;;13.90;55.50;;;;;;5019603;28;19917;-82
2022/04/06 08:31:43;;;;;;;;;;;14.10;54.50;;;;;;5019058;28;20312;-84
2022/04/06 08:34:08;;;;;;;;;;;14.30;53.80;;;;;;5019451;28;19909;-83
2022/04/06 08:36:34;;;;;;;;;;;14.60;52.40;;;;;;5019689;28;20533;-82
2022/04/06 08:39:01;;;;;;;;;;;14.60;51.90;;;;;;5019296;28;19914;-83
2022/04/06 08:41:28;;;;;;;;;;;14.80;51.40;;;;;;5019388;28;19916;-87
2022/04/06 08:43:55;;;;;;;;;;;14.80;51.30;;;;;;5018571;28;19921;-81
2022/04/06 08:46:21;;;;;;;;;;;15.00;50.90;;;;;;5000843;28;19980;-86
2022/04/06 08:48:47;;;;;;;;;;;15.10;50.80;;;;;;5020088;28;19909;-84
2022/04/06 08:51:14;;;;;;;;;;;15.40;51.20;;;;;;4998300;28;20490;-83
2022/04/06 08:53:40;;;;;;;;;;;15.50;49.70;;;;;;5016811;28;19910;-83
2022/04/06 08:56:06;;;;;;;;;;;15.60;48.00;;;;;;4998054;28;19925;-83
2022/04/06 08:58:32;;;;;;;;;;;15.70;48.50;;;;;;5015880;28;19909;-84
2022/04/06 09:00:58;;;;;;;;;;;15.90;48.90;;;;;;4997737;28;19917;-82
2022/04/06 09:03:24;;;;;;;;;;;16.00;47.40;;;;;;5015303;28;19953;-81
2022/04/06 09:06:02;;;;;;;;;;;16.20;45.80;;;;;;5019649;28;20011;-82
2022/04/06 09:08:33;;;;;;;;;;;16.50;45.60;;;;;;5018447;28;19910;-82
2022/04/06 09:11:06;;;;;;;;;;;16.40;44.80;;;;;;5018845;28;20611;-82
2022/04/06 09:13:31;;;;;;;;;;;16.60;44.00;;;;;;5019029;28;20545;-82
2022/04/06 09:16:00;;;;;;;;;;;16.90;43.90;;;;;;5022619;28;19970;-82
2022/04/06 09:18:35;;;;;;;;;;;17.00;42.60;;;;;;5021930;28;19943;-83
2022/04/06 09:21:02;;;;;;;;;;;17.00;42.70;;;;;;5004276;28;20426;-81
2022/04/06 09:23:31;;;;;;;;;;;17.30;42.90;;;;;;5021607;28;20126;-79
2022/04/06 09:26:01;;;;;;;;;;;17.50;43.30;;;;;;5021551;28;19909;-82
2022/04/06 09:28:26;;;;;;;;;;;17.80;42.70;;;;;;5022337;28;19971;-81
2022/04/06 09:30:52;;;;;;;;;;;17.90;42.70;;;;;;5021825;28;19909;-82
2022/04/06 09:33:20;;;;;;;;;;;18.10;42.30;;;;;;5022701;28;19917;-81
2022/04/06 09:35:46;;;;;;;;;;;17.80;41.30;;;;;;5022101;28;20008;-81
2022/04/06 09:38:14;;;;;;;;;;;17.90;41.70;;;;;;5022772;28;20176;-83
2022/04/06 09:40:40;;;;;;;;;;;18.10;41.00;;;;;;5029534;28;20031;-80
2022/04/06 09:43:08;;;;;;;;;;;18.30;41.80;;;;;;5020142;28;19921;-82
2022/04/06 09:48:18;;;;;;;;;;;18.70;40.50;;;;;;5034378;28;19915;-82
2022/04/06 09:50:55;;;;;;;;;;;18.90;39.70;;;;;;5011462;28;20007;-82
2022/04/06 09:53:23;;;;;;;;;;;19.00;37.90;;;;;;5027219;28;19905;-82
2022/04/06 09:55:49;;;;;;;;;;;19.20;39.30;;;;;;5028624;28;19918;-82
2022/04/06 09:58:15;;;;;;;;;;;19.30;39.00;;;;;;5027615;28;19979;-81
2022/04/06 10:00:42;;;;;;;;;;;19.30;38.10;;;;;;5023432;28;19943;-82
2022/04/06 10:03:08;;;;;;;;;;;19.50;37.90;;;;;;5001207;28;19918;-83
2022/04/06 10:05:35;;;;;;;;;;;19.50;37.60;;;;;;5019571;28;19929;-84
2022/04/06 10:08:01;;;;;;;;;;;19.70;35.70;;;;;;5000683;28;19910;-80
2022/04/06 10:10:26;;;;;;;;;;;19.70;36.40;;;;;;5017483;28;19948;-82
2022/04/06 10:12:53;;;;;;;;;;;19.70;34.60;;;;;;5021806;28;19952;-83
2022/04/06 10:15:18;;;;;;;;;;;19.80;35.70;;;;;;5000861;28;19913;-82
2022/04/06 10:17:44;;;;;;;;;;;20.00;34.70;;;;;;5002536;28;19910;-82
2022/04/06 10:20:17;;;;;;;;;;;19.90;35.00;;;;;;5021075;28;20519;-83
2022/04/06 10:23:00;;;;;;;;;;;20.10;34.20;;;;;;5003734;28;20115;-82
2022/04/06 10:25:27;;;;;;;;;;;20.30;33.90;;;;;;5000028;28;19975;-82
2022/04/06 10:27:55;;;;;;;;;;;20.40;33.30;;;;;;5013467;28;19916;-83
2022/04/06 10:30:26;;;;;;;;;;;20.30;32.90;;;;;;5021501;28;19905;-83
2022/04/06 10:32:52;;;;;;;;;;;20.40;32.80;;;;;;5021684;28;20114;-83
2022/04/06 10:35:18;;;;;;;;;;;20.40;32.80;;;;;;5022573;28;20489;-82
2022/04/06 10:37:47;;;;;;;;;;;20.70;33.40;;;;;;5022182;28;20431;-81
2022/04/06 10:40:13;;;;;;;;;;;20.70;32.90;;;;;;5000797;28;20078;-83
2022/04/06 10:42:41;;;;;;;;;;;20.70;33.00;;;;;;5017846;28;20603;-82
2022/04/06 10:45:25;;;;;;;;;;;21.00;33.70;;;;;;5016443;28;19919;-83
2022/04/06 10:48:20;;;;;;;;;;;20.80;32.70;;;;;;5020664;28;19963;-82
2022/04/06 10:50:49;;;;;;;;;;;20.90;33.10;;;;;;4921981;29;19918;-82
2022/04/06 10:53:18;;;;;;;;;;;20.80;32.90;;;;;;4921312;29;20612;-83
2022/04/06 10:56:02;;;;;;;;;;;20.80;32.30;;;;;;4921224;29;19927;-83
2022/04/06 10:58:28;;;;;;;;;;;21.20;32.60;;;;;;4921978;29;19910;-83
2022/04/06 11:01:13;;;;;;;;;;;21.20;31.30;;;;;;4922033;29;19989;-83
2022/04/06 11:03:40;;;;;;;;;;;21.40;31.70;;;;;;4922074;29;19911;-83
2022/04/06 11:06:06;;;;;;;;;;;21.30;31.60;;;;;;4941572;29;20560;-83
2022/04/06 11:11:38;;;;;;;;;;;21.60;31.40;;;;;;4941794;29;19922;-74
2022/04/06 11:14:04;;;;;;;;;;;21.90;30.50;;;;;;4926830;29;19962;-82
2022/04/06 11:16:43;;;;;;;;;;;22.10;30.70;;;;;;4924741;29;19927;-81
2022/04/06 11:19:09;;;;;;;;;;;22.30;30.60;;;;;;4935204;29;19911;-82
2022/04/06 11:21:34;;;;;;;;;;;22.30;30.40;;;;;;4933576;29;20357;-84
2022/04/06 11:24:00;;;;;;;;;;;22.50;30.10;;;;;;4933784;29;19962;-83
2022/04/06 11:26:27;;;;;;;;;;;22.40;29.40;;;;;;4943572;28;19936;-83
2022/04/06 11:28:58;;;;;;;;;;;22.50;29.50;;;;;;5014551;28;19959;-81
2022/04/06 11:31:23;;;;;;;;;;;22.80;29.60;;;;;;5000262;28;19916;-83
2022/04/06 11:33:49;;;;;;;;;;;23.00;29.60;;;;;;5020035;28;19905;-81
2022/04/06 11:36:15;;;;;;;;;;;23.10;29.10;;;;;;5020451;28;20578;-81
2022/04/06 11:38:41;;;;;;;;;;;23.40;29.40;;;;;;5019323;28;19917;-80
2022/04/06 11:41:07;;;;;;;;;;;23.40;28.70;;;;;;5020246;28;19955;-81
2022/04/06 11:43:36;;;;;;;;;;;23.00;28.50;;;;;;5000155;28;20452;-80
2022/04/06 11:46:01;;;;;;;;;;;22.90;28.80;;;;;;5020086;28;20008;-83
2022/04/06 11:48:37;;;;;;;;;;;22.70;28.90;;;;;;5002010;28;20015;-83
2022/04/06 11:51:03;;;;;;;;;;;22.90;28.30;;;;;;5020082;28;19909;-82
2022/04/06 11:53:29;;;;;;;;;;;23.40;28.10;;;;;;4999463;28;19909;-83
2022/04/06 11:55:55;;;;;;;;;;;23.70;28.40;;;;;;4998493;28;19924;-82
2022/04/06 11:58:37;;;;;;;;;;;23.00;27.60;;;;;;5015624;28;19905;-82
2022/04/06 12:01:16;;;;;;;;;;;23.80;27.80;;;;;;4998795;28;19910;-82
2022/04/06 12:03:42;;;;;;;;;;;24.40;27.80;;;;;;5018242;28;19909;-82
2022/04/06 12:06:12;;;;;;;;;;;24.90;27.00;;;;;;5019108;28;19925;-83
2022/04/06 12:08:38;;;;;;;;;;;25.00;26.50;;;;;;5000509;28;19936;-82
2022/04/06 12:11:04;;;;;;;;;;;25.00;26.20;;;;;;4998216;28;19921;-83
2022/04/06 12:13:42;;;;;;;;;;;25.30;26.50;;;;;;5016264;28;19910;-83
2022/04/06 12:16:08;;;;;;;;;;;25.80;27.30;;;;;;5018538;28;19968;-83
2022/04/06 12:18:33;;;;;;;;;;;26.20;26.50;;;;;;5018700;28;19952;-82
2022/04/06 12:21:00;;;;;;;;;;;26.40;26.70;;;;;;5001069;28;20600;-83
2022/04/06 12:23:26;;;;;;;;;;;26.40;26.40;;;;;;5018956;28;19916;-82
2022/04/06 12:25:59;;;;;;;;;;;26.20;26.40;;;;;;5001187;28;19909;-83
2022/04/06 12:28:26;;;;;;;;;;;26.40;26.40;;;;;;5016632;28;19925;-87
2022/04/06 12:30:55;;;;;;;;;;;26.70;25.90;;;;;;5002004;28;20049;-86
2022/04/06 12:33:36;;;;;;;;;;;26.80;25.90;;;;;;5016457;28;20295;-85
2022/04/06 12:36:17;;;;;;;;;;;26.70;26.10;;;;;;5013140;28;19913;-83
2022/04/06 12:38:55;;;;;;;;;;;26.60;25.90;;;;;;5017995;28;20012;-85
2022/04/06 12:41:22;;;;;;;;;;;26.70;25.80;;;;;;5002341;28;20024;-85
2022/04/06 12:43:47;;;;;;;;;;;26.70;26.20;;;;;;5020549;28;19920;-84
2022/04/06 12:46:13;;;;;;;;;;;26.40;26.70;;;;;;5000580;28;19918;-85
2022/04/06 12:48:38;;;;;;;;;;;24.10;25.00;;;;;;5016965;28;19953;-83
2022/04/06 12:51:21;;;;;;;;;;;26.10;25.80;;;;;;5021001;28;20448;-82
2022/04/06 12:53:50;;;;;;;;;;;25.50;25.70;;;;;;5004442;28;20609;-83
2022/04/06 12:56:22;;;;;;;;;;;25.80;25.40;;;;;;4998815;28;19917;-83
2022/04/06 12:59:09;;;;;;;;;;;25.70;25.60;;;;;;5020188;28;19967;-83
2022/04/06 13:01:45;;;;;;;;;;;25.80;26.10;;;;;;5041902;28;20087;-82
2022/04/06 13:04:10;;;;;;;;;;;25.90;25.10;;;;;;5019786;28;19914;-82
2022/04/06 13:06:36;;;;;;;;;;;26.20;25.30;;;;;;5036678;28;19913;-80
2022/04/06 13:09:01;;;;;;;;;;;26.30;24.80;;;;;;5019105;28;19898;-83
2022/04/06 13:11:27;;;;;;;;;;;25.90;24.60;;;;;;5030755;28;19916;-82
2022/04/06 13:13:52;;;;;;;;;;;25.60;24.70;;;;;;5005291;28;19921;-82
2022/04/06 13:16:19;;;;;;;;;;;25.50;24.60;;;;;;5010141;28;19922;-83
2022/04/06 13:18:45;;;;;;;;;;;25.70;24.80;;;;;;5010075;28;19905;-83
2022/04/06 13:21:11;;;;;;;;;;;25.90;25.30;;;;;;5004195;28;20024;-83
2022/04/06 13:23:37;;;;;;;;;;;26.50;25.00;;;;;;5002287;28;19945;-82
2022/04/06 13:26:03;;;;;;;;;;;26.90;24.70;;;;;;4998974;28;19932;-85
2022/04/06 13:28:29;;;;;;;;;;;27.10;24.70;;;;;;5003026;28;19905;-85
2022/04/06 13:30:57;;;;;;;;;;;27.40;24.90;;;;;;5000510;28;19921;-83
2022/04/06 13:33:23;;;;;;;;;;;27.60;24.90;;;;;;4996041;28;19913;-83
2022/04/06 13:35:50;;;;;;;;;;;27.00;23.90;;;;;;5015018;28;19975;-83
2022/04/06 13:38:15;;;;;;;;;;;27.00;24.20;;;;;;4983937;28;19920;-84
2022/04/06 13:40:41;;;;;;;;;;;27.40;24.30;;;;;;4998014;28;19910;-82
2022/04/06 13:43:07;;;;;;;;;;;27.90;24.20;;;;;;4982820;28;20059;-84
2022/04/06 13:45:32;;;;;;;;;;;27.80;23.80;;;;;;4996939;28;20320;-83
2022/04/06 13:47:58;;;;;;;;;;;27.10;24.30;;;;;;5000110;28;20000;-83
2022/04/06 13:50:24;;;;;;;;;;;27.20;24.50;;;;;;4999969;28;20037;-83
2022/04/06 13:52:49;;;;;;;;;;;28.00;24.50;;;;;;4982185;28;19921;-83
2022/04/06 13:55:21;;;;;;;;;;;28.40;24.10;;;;;;4998764;28;19928;-81
2022/04/06 13:57:50;;;;;;;;;;;29.90;24.30;;;;;;4981845;28;19969;-81
2022/04/06 14:00:17;;;;;;;;;;;28.30;24.40;;;;;;4999461;28;19910;-84
2022/04/06 14:02:43;;;;;;;;;;;28.80;24.20;;;;;;5001765;28;19913;-85
2022/04/06 14:05:09;;;;;;;;;;;29.30;24.30;;;;;;5015297;28;20188;-83
2022/04/06 14:07:34;;;;;;;;;;;29.70;23.80;;;;;;5022527;28;19952;-80
2022/04/06 14:10:00;;;;;;;;;;;30.00;23.80;;;;;;5021717;28;19949;-81
2022/04/06 14:12:26;;;;;;;;;;;30.20;23.80;;;;;;5021712;28;20476;-82
2022/04/06 14:14:52;;;;;;;;;;;28.50;22.30;;;;;;5003726;28;19929;-83
2022/04/06 14:17:17;;;;;;;;;;;30.70;23.20;;;;;;5022412;28;19913;-82
2022/04/06 14:19:43;;;;;;;;;;;30.20;23.00;;;;;;5019978;28;19959;-83
2022/04/06 14:22:08;;;;;;;;;;;29.10;23.50;;;;;;5001154;28;20486;-83
2022/04/06 14:24:34;;;;;;;;;;;28.70;23.50;;;;;;5019090;28;20574;-83
2022/04/06 14:27:01;;;;;;;;;;;28.60;23.60;;;;;;5021609;28;19921;-84
2022/04/06 14:29:26;;;;;;;;;;;28.80;23.60;;;;;;5022178;28;19966;-82
2022/04/06 14:31:53;;;;;;;;;;;29.10;24.10;;;;;;5004485;28;20004;-82